Terminal Aerodrome Forecast
Issued by NWS

Home | Current Version | Previous Version | Text Only | Print | Product List | Glossary On
Versions: 1 2 3 4 5 6 7 8 9 10 11 12
000
FTUS41 KBTV 242320
TAFMPV
TAF
KMPV 242320Z 2500/2524 18005KT P6SM SCT200
     FM251100 VRB03KT P6SM -RA OVC060
     FM251400 14010KT 6SM -RA BR OVC030
     FM251700 13005KT 4SM -RA BR OVC025
     FM252100 15006KT 4SM -RA BR OVC015=

USA.gov is the U.S. government's official web portal to all federal, state and local government web resources and services.